Time;durP1;ratioP1;P1;durP2;ratioP2;P2;SDS_P1;SDS_P2;PMS_P1;PMS_P2;Temp;Humidity;BMP_temperature;BMP_pressure;BME280_temperature;BME280_humidity;BME280_pressure;Samples;Min_cycle;Max_cycle;Signal;HPM_P1;HPM_P2
2022/11/27 00:02:03;;;;;;;48.42;20.75;;;;;;;0.03;100.00;98624.91;5074082;28;20020;-79
2022/11/27 00:04:29;;;;;;;53.35;24.10;;;;;;;0.19;100.00;98624.81;5073215;28;20089;-79
2022/11/27 00:06:54;;;;;;;54.50;23.67;;;;;;;0.32;100.00;98633.53;5053843;28;20039;-78
2022/11/27 00:09:20;;;;;;;58.45;26.58;;;;;;;0.38;100.00;98621.22;5077248;28;20019;-78
2022/11/27 00:11:45;;;;;;;58.75;27.08;;;;;;;0.50;100.00;98622.94;5090352;28;20097;-78
2022/11/27 00:14:13;;;;;;;55.25;24.67;;;;;;;0.59;100.00;98632.53;5076132;28;20117;-80
2022/11/27 00:16:39;;;;;;;49.80;21.20;;;;;;;0.58;100.00;98623.78;5055093;28;20032;-79
2022/11/27 00:19:04;;;;;;;55.33;21.25;;;;;;;0.61;100.00;98618.50;5074614;28;20024;-79
2022/11/27 00:21:32;;;;;;;51.60;21.45;;;;;;;0.67;100.00;98618.47;5073219;28;20056;-78
2022/11/27 00:23:59;;;;;;;61.38;22.20;;;;;;;0.77;100.00;98624.56;5053661;28;20029;-78
2022/11/27 00:26:26;;;;;;;53.47;21.20;;;;;;;0.81;100.00;98605.19;5061803;28;20028;-78
2022/11/27 00:28:52;;;;;;;51.70;19.80;;;;;;;0.82;100.00;98599.94;5064915;28;20328;-79
2022/11/27 00:31:29;;;;;;;46.92;19.35;;;;;;;0.87;100.00;98599.91;5073474;28;20031;-79
2022/11/27 00:34:00;;;;;;;45.00;17.98;;;;;;;0.95;100.00;98606.00;5061168;28;20056;-79
2022/11/27 00:36:30;;;;;;;42.07;17.47;;;;;;;0.94;100.00;98598.97;5061778;28;20024;-79
2022/11/27 00:38:56;;;;;;;43.50;17.52;;;;;;;1.01;100.00;98605.97;5070011;28;20488;-79
2022/11/27 00:41:24;;;;;;;71.32;26.05;;;;;;;1.03;100.00;98591.00;5069990;28;20112;-79
2022/11/27 00:43:50;;;;;;;64.90;25.77;;;;;;;1.07;100.00;98600.66;5053643;28;20548;-79
2022/11/27 00:46:18;;;;;;;63.33;25.02;;;;;;;1.14;100.00;98610.22;5073084;28;20427;-79
2022/11/27 00:48:44;;;;;;;54.80;22.38;;;;;;;0.97;100.00;98585.78;5070335;28;20020;-79
2022/11/27 00:51:21;;;;;;;53.60;20.15;;;;;;;0.97;100.00;98604.22;5058415;28;20028;-79
2022/11/27 00:53:46;;;;;;;56.55;20.90;;;;;;;0.94;100.00;98604.25;5070656;28;20559;-78
2022/11/27 00:56:18;;;;;;;49.83;20.02;;;;;;;0.97;100.00;98612.13;5073407;28;20020;-78
2022/11/27 00:58:44;;;;;;;46.83;20.38;;;;;;;0.91;100.00;98602.50;5080501;28;20035;-77
2022/11/27 01:01:16;;;;;;;41.00;18.58;;;;;;;0.69;100.00;98590.38;5085719;28;20130;-78
2022/11/27 01:03:42;;;;;;;;;;;;;;;0.79;100.00;98604.34;5087949;28;20511;-78
2022/11/27 01:06:08;;;;;;;29.83;14.02;;;;;;;0.67;100.00;98596.53;5068565;28;19919;-78
2022/11/27 01:08:34;;;;;;;30.23;12.82;;;;;;;0.48;100.00;98586.09;5069850;28;20016;-78
2022/11/27 01:11:00;;;;;;;27.50;12.48;;;;;;;0.36;100.00;98580.91;5086632;28;20530;-78
2022/11/27 01:13:28;;;;;;;28.42;12.52;;;;;;;0.28;100.00;98594.97;5058158;28;20025;-78
2022/11/27 01:16:08;;;;;;;27.60;12.07;;;;;;;0.24;100.00;98591.50;5058546;28;20048;-79
2022/11/27 01:18:35;;;;;;;27.33;11.52;;;;;;;0.29;100.00;98604.63;5053354;28;20551;-79
2022/11/27 01:21:02;;;;;;;25.70;12.23;;;;;;;0.37;100.00;98611.59;5053378;28;20523;-79
2022/11/27 01:23:28;;;;;;;27.08;12.13;;;;;;;0.43;100.00;98608.06;5059737;28;20082;-79
2022/11/27 01:25:53;;;;;;;30.77;12.50;;;;;;;0.51;100.00;98608.91;5089634;28;20487;-79
2022/11/27 01:28:21;;;;;;;28.42;12.82;;;;;;;0.50;100.00;98605.38;5072763;28;20039;-79
2022/11/27 01:30:46;;;;;;;28.02;12.52;;;;;;;0.53;100.00;98597.47;5078484;28;20038;-79
2022/11/27 01:33:12;;;;;;;29.40;14.10;;;;;;;0.65;100.00;98600.94;5072679;28;20036;-78
2022/11/27 01:35:37;;;;;;;32.10;14.25;;;;;;;0.72;100.00;98600.88;5064735;28;20054;-80
2022/11/27 01:38:03;;;;;;;28.75;14.40;;;;;;;0.86;100.00;98604.28;5070128;28;20503;-79
2022/11/27 01:40:29;;;;;;;38.22;17.60;;;;;;;0.89;100.00;98603.41;5057043;28;20571;-79
2022/11/27 01:42:54;;;;;;;36.90;16.77;;;;;;;0.94;100.00;98597.22;5065412;28;20097;-79
2022/11/27 01:45:20;;;;;;;46.65;20.17;;;;;;;0.97;100.00;98588.41;5082894;28;20035;-78
2022/11/27 01:47:54;;;;;;;44.17;20.27;;;;;;;1.03;100.00;98601.53;5077110;28;20024;-79
2022/11/27 01:50:29;;;;;;;51.97;22.15;;;;;;;1.04;100.00;98591.00;5069487;28;20028;-79
2022/11/27 01:53:16;;;;;;;51.00;23.17;;;;;;;1.11;100.00;98590.97;5052819;28;20029;-80
2022/11/27 01:55:47;;;;;;;59.38;21.80;;;;;;;1.15;100.00;98584.75;5089527;28;20498;-80
2022/11/27 01:58:16;;;;;;;54.17;20.23;;;;;;;1.26;100.00;98594.31;5085143;28;20020;-78
2022/11/27 02:00:42;;;;;;;46.25;20.60;;;;;;;1.34;100.00;98596.91;5093612;28;20024;-78
2022/11/27 02:03:07;;;;;;;49.30;22.02;;;;;;;1.41;100.00;98604.75;5061231;28;20518;-78
2022/11/27 02:05:33;;;;;;;48.50;22.80;;;;;;;1.39;100.00;98582.78;5070653;28;20085;-78
2022/11/27 02:08:02;;;;;;;54.25;23.23;;;;;;;1.35;100.00;98583.72;5080362;28;20153;-78
2022/11/27 02:10:48;;;;;;;52.28;22.45;;;;;;;1.50;100.00;98590.63;5064149;28;20040;-78
2022/11/27 02:13:33;;;;;;;62.38;22.70;;;;;;;1.54;100.00;98589.66;5056083;28;20036;-78
2022/11/27 02:16:29;;;;;;;48.65;22.30;;;;;;;1.60;100.00;98595.75;5090815;28;20059;-78
2022/11/27 02:19:21;;;;;;;58.10;24.40;;;;;;;1.63;100.00;98587.81;5087252;28;20482;-78
2022/11/27 02:21:58;;;;;;;67.60;27.92;;;;;;;1.70;100.00;98591.28;5068583;28;20028;-79
2022/11/27 02:24:37;;;;;;;69.97;29.23;;;;;;;1.72;100.00;98583.38;5055896;28;20033;-79
2022/11/27 02:27:21;;;;;;;56.63;23.45;;;;;;;1.87;100.00;98599.03;5086706;28;20048;-79
2022/11/27 02:29:49;;;;;;;50.70;22.08;;;;;;;1.73;100.00;98574.53;5092765;28;20020;-80
2022/11/27 02:32:20;;;;;;;64.80;28.60;;;;;;;1.83;100.00;98586.75;5073019;28;20032;-80
2022/11/27 02:34:56;;;;;;;69.30;30.13;;;;;;;1.91;100.00;98580.50;5075566;28;20093;-80
2022/11/27 02:37:47;;;;;;;55.17;25.85;;;;;;;1.98;100.00;98590.09;5048024;28;20508;-79
2022/11/27 02:40:26;;;;;;;67.10;27.23;;;;;;;1.97;100.00;98587.50;5091690;28;20035;-79
2022/11/27 02:43:13;;;;;;;54.05;23.40;;;;;;;1.91;100.00;98569.94;5085295;28;20074;-79
2022/11/27 02:45:45;;;;;;;63.13;26.55;;;;;;;1.98;100.00;98569.00;5086744;28;20020;-80
2022/11/27 02:48:16;;;;;;;59.72;23.52;;;;;;;1.94;100.00;98572.53;5067105;28;20415;-79
2022/11/27 02:50:43;;;;;;;50.70;22.73;;;;;;;2.01;100.00;98583.91;5092627;28;20405;-79
2022/11/27 02:53:18;;;;;;;53.22;22.75;;;;;;;1.93;100.00;98584.00;5067269;28;20037;-79
2022/11/27 02:55:44;;;;;;;48.92;22.23;;;;;;;1.94;100.00;98590.16;5066681;28;20391;-79
2022/11/27 02:58:14;;;;;;;55.22;22.67;;;;;;;1.98;100.00;98589.22;5063820;28;20026;-80
2022/11/27 03:00:41;;;;;;;51.80;22.88;;;;;;;1.99;100.00;98586.56;5071883;28;20090;-78
2022/11/27 03:03:09;;;;;;;58.85;24.75;;;;;;;2.00;100.00;98588.31;5088948;28;20073;-78
2022/11/27 03:05:38;;;;;;;65.43;26.83;;;;;;;1.93;100.00;98577.84;5076644;28;20028;-79
2022/11/27 03:08:17;;;;;;;57.22;25.60;;;;;;;1.92;100.00;98586.66;5086418;28;20038;-79
2022/11/27 03:11:03;;;;;;;51.92;22.25;;;;;;;1.88;100.00;98588.44;5091669;28;20493;-78
2022/11/27 03:13:31;;;;;;;52.92;22.70;;;;;;;1.76;100.00;98585.06;5060729;28;20483;-78
2022/11/27 03:16:34;;;;;;;46.95;20.75;;;;;;;1.82;100.00;98598.19;5070695;28;20372;-78
2022/11/27 03:19:19;;;;;;;41.28;18.95;;;;;;;1.74;100.00;98592.13;5043945;28;20032;-78
2022/11/27 03:21:48;;;;;;;39.83;19.25;;;;;;;1.62;100.00;98591.38;5077939;28;20059;-79
2022/11/27 03:24:14;;;;;;;39.88;18.50;;;;;;;1.58;100.00;98589.63;5070709;28;20060;-79
2022/11/27 03:26:40;;;;;;;39.47;18.85;;;;;;;1.59;100.00;98585.25;5083365;28;20035;-79
2022/11/27 03:29:09;;;;;;;40.60;19.52;;;;;;;1.67;100.00;98600.97;5092208;28;20078;-79
2022/11/27 03:31:34;;;;;;;45.85;19.13;;;;;;;1.76;100.00;98611.44;5076603;28;20032;-78
2022/11/27 03:34:00;;;;;;;39.08;18.17;;;;;;;1.77;100.00;98613.19;5071447;28;20327;-78
2022/11/27 03:36:26;;;;;;;47.50;20.50;;;;;;;1.72;100.00;98601.81;5074056;28;20028;-78
2022/11/27 03:38:53;;;;;;;42.28;20.23;;;;;;;1.80;100.00;98613.16;5091446;28;20031;-77
2022/11/27 03:41:56;;;;;;;42.60;19.15;;;;;;;1.82;100.00;98608.72;5074477;28;20063;-79
2022/11/27 03:44:52;;;;;;;42.20;19.08;;;;;;;1.84;100.00;98606.97;5078556;28;20107;-79
2022/11/27 03:47:39;;;;;;;42.72;18.85;;;;;;;1.83;100.00;98608.72;5074995;28;20059;-79
2022/11/27 03:50:27;;;;;;;46.00;19.10;;;;;;;1.81;100.00;98604.38;5070597;28;20021;-79
2022/11/27 03:53:17;;;;;;;42.45;19.63;;;;;;;1.78;100.00;98605.28;5087595;28;20024;-79
2022/11/27 03:55:55;;;;;;;48.38;18.23;;;;;;;1.80;100.00;98602.59;5084120;28;20131;-79
2022/11/27 03:58:45;;;;;;;42.40;18.48;;;;;;;1.78;100.00;98597.38;5082857;28;20035;-79
2022/11/27 04:01:12;;;;;;;46.05;19.25;;;;;;;1.79;100.00;98595.56;5074076;28;20122;-78
2022/11/27 04:03:38;;;;;;;51.38;19.83;;;;;;;1.75;100.00;98596.53;5054071;28;20032;-77
2022/11/27 04:06:03;;;;;;;44.53;18.67;;;;;;;1.85;100.00;98596.38;5071061;28;20537;-78
2022/11/27 04:08:29;;;;;;;43.08;19.30;;;;;;;1.93;100.00;98604.22;5082193;28;20585;-78
2022/11/27 04:10:54;;;;;;;64.63;24.52;;;;;;;1.90;100.00;98599.88;5090600;28;20052;-78
2022/11/27 04:13:20;;;;;;;42.53;19.10;;;;;;;1.78;100.00;98584.19;5082178;28;20031;-78
2022/11/27 04:15:45;;;;;;;45.28;21.08;;;;;;;1.77;100.00;98586.81;5076458;28;20395;-79
2022/11/27 04:18:11;;;;;;;49.28;20.95;;;;;;;1.90;100.00;98597.22;5089167;28;20027;-78
2022/11/27 04:20:37;;;;;;;48.83;21.02;;;;;;;1.93;100.00;98594.56;5072329;28;20032;-79
2022/11/27 04:23:02;;;;;;;42.75;19.27;;;;;;;1.77;100.00;98586.81;5057925;28;20066;-78
2022/11/27 04:25:28;;;;;;;42.30;19.75;;;;;;;1.76;100.00;98587.69;5089679;28;20035;-79
2022/11/27 04:27:53;;;;;;;45.22;20.20;;;;;;;1.58;100.00;98581.72;5073683;28;20367;-79
2022/11/27 04:30:19;;;;;;;38.38;18.65;;;;;;;1.47;100.00;98586.25;5089168;28;20032;-79
2022/11/27 04:32:45;;;;;;;43.83;19.20;;;;;;;1.45;100.00;98593.28;5090505;28;20461;-77
2022/11/27 04:35:10;;;;;;;42.72;19.38;;;;;;;1.43;100.00;98596.81;5090459;28;20039;-79
2022/11/27 04:37:36;;;;;;;44.65;19.00;;;;;;;1.35;100.00;98598.66;5074986;28;20506;-79
2022/11/27 04:40:02;;;;;;;42.63;18.05;;;;;;;1.28;100.00;98605.75;5083381;28;20028;-79
2022/11/27 04:42:28;;;;;;;39.03;18.10;;;;;;;1.17;100.00;98602.28;5058073;28;20028;-79
2022/11/27 04:44:53;;;;;;;65.53;25.80;;;;;;;1.12;100.00;98612.00;5077842;28;20032;-79
2022/11/27 04:47:19;;;;;;;50.88;21.48;;;;;;;0.88;100.00;98602.53;5053172;28;20043;-79
2022/11/27 04:49:44;;;;;;;60.05;23.92;;;;;;;0.84;100.00;98613.09;5081097;28;20039;-78
2022/11/27 04:52:10;;;;;;;63.95;24.60;;;;;;;0.74;100.00;98614.88;5090273;28;20039;-78
2022/11/27 04:54:36;;;;;;;58.45;25.80;;;;;;;0.70;100.00;98618.44;5072787;28;20032;-78
2022/11/27 04:57:02;;;;;;;56.88;24.27;;;;;;;0.72;100.00;98632.47;5073588;28;20028;-78
2022/11/27 04:59:28;;;;;;;44.95;21.15;;;;;;;0.68;100.00;98635.16;5089957;28;20115;-79
2022/11/27 05:01:54;;;;;;;56.70;24.55;;;;;;;0.65;100.00;98638.63;5077968;28;20104;-78
2022/11/27 05:04:20;;;;;;;57.85;24.67;;;;;;;0.68;100.00;98653.56;5069658;28;20090;-77
2022/11/27 05:06:45;;;;;;;61.38;25.17;;;;;;;0.58;100.00;98646.59;5079600;28;20024;-78
2022/11/27 05:09:11;;;;;;;55.30;23.58;;;;;;;0.58;100.00;98663.25;5052868;28;20155;-79
2022/11/27 05:11:37;;;;;;;51.72;23.10;;;;;;;0.47;100.00;98662.41;5052625;28;20084;-79
2022/11/27 05:14:15;;;;;;;58.75;23.85;;;;;;;0.52;100.00;98671.19;5082966;28;20024;-78
2022/11/27 05:16:42;;;;;;;53.85;22.00;;;;;;;0.48;100.00;98662.44;5090025;28;20039;-78
2022/11/27 05:19:09;;;;;;;46.75;21.80;;;;;;;0.61;100.00;98686.06;5073131;28;20556;-79
2022/11/27 05:21:35;;;;;;;49.83;21.13;;;;;;;0.51;100.00;98675.56;5072665;28;20025;-79
2022/11/27 05:24:01;;;;;;;49.33;21.55;;;;;;;0.52;100.00;98674.66;5069774;28;20104;-79
2022/11/27 05:26:26;;;;;;;49.10;21.17;;;;;;;0.47;100.00;98668.56;5079332;28;20115;-79
2022/11/27 05:28:52;;;;;;;45.25;20.90;;;;;;;0.38;100.00;98660.69;5085767;28;20063;-79
2022/11/27 05:31:17;;;;;;;47.60;20.27;;;;;;;0.38;100.00;98665.09;5077029;28;20036;-78
2022/11/27 05:33:43;;;;;;;42.53;20.10;;;;;;;0.46;100.00;98679.97;5075567;28;20035;-80
2022/11/27 05:36:08;;;;;;;46.17;20.08;;;;;;;0.49;100.00;98687.00;5094158;28;20039;-79
2022/11/27 05:38:34;;;;;;;57.22;22.00;;;;;;;0.40;100.00;98676.50;5061960;28;20380;-78
2022/11/27 05:40:59;;;;;;;61.47;27.35;;;;;;;0.37;100.00;98679.16;5085418;28;20043;-78
2022/11/27 05:43:25;;;;;;;55.70;27.00;;;;;;;0.35;100.00;98679.13;5085511;28;20443;-78
2022/11/27 05:45:50;;;;;;;83.72;34.22;;;;;;;0.36;100.00;98683.53;5092128;28;20020;-79
2022/11/27 05:48:16;;;;;;;94.07;37.40;;;;;;;0.37;100.00;98674.72;5069867;28;20025;-79
2022/11/27 05:50:42;;;;;;;69.10;29.48;;;;;;;0.38;100.00;98684.38;5057751;28;20040;-78
2022/11/27 05:53:07;;;;;;;70.25;29.42;;;;;;;0.50;100.00;98700.13;5068989;28;20035;-78
2022/11/27 05:55:33;;;;;;;79.57;33.58;;;;;;;0.49;100.00;98698.38;5078939;28;20407;-79
2022/11/27 05:57:58;;;;;;;93.93;38.38;;;;;;;0.61;100.00;98696.59;5075190;28;20027;-80
2022/11/27 06:00:25;;;;;;;85.18;34.35;;;;;;;0.77;100.00;98693.00;5086223;28;20024;-79
2022/11/27 06:02:51;;;;;;;79.68;34.55;;;;;;;0.76;100.00;98692.13;5081424;28;20023;-78
2022/11/27 06:05:16;;;;;;;89.75;39.65;;;;;;;0.85;100.00;98689.44;5081222;28;20025;-79
2022/11/27 06:07:42;;;;;;;104.22;43.83;;;;;;;0.97;100.00;98680.59;5072872;28;20061;-79
2022/11/27 06:10:08;;;;;;;101.10;40.67;;;;;;;1.06;100.00;98684.06;5079665;28;20058;-79
2022/11/27 06:12:33;;;;;;;102.72;37.95;;;;;;;1.09;100.00;98669.97;5081354;28;20050;-79
2022/11/27 06:14:59;;;;;;;96.63;35.45;;;;;;;1.19;100.00;98669.06;5082359;28;20032;-80
2022/11/27 06:17:25;;;;;;;93.70;38.88;;;;;;;1.44;100.00;98670.63;5055949;28;20451;-78
2022/11/27 06:19:50;;;;;;;107.60;42.88;;;;;;;1.51;100.00;98664.41;5091830;28;20042;-80
2022/11/27 06:22:16;;;;;;;111.53;47.70;;;;;;;1.67;100.00;98666.91;5088454;28;20024;-78
2022/11/27 06:24:41;;;;;;;107.72;43.33;;;;;;;1.72;100.00;98646.66;5082436;28;20028;-79
2022/11/27 06:27:07;;;;;;;85.75;33.33;;;;;;;1.80;100.00;98647.44;5067913;28;20111;-79
2022/11/27 06:29:32;;;;;;;90.47;32.50;;;;;;;2.00;100.00;98654.25;5061612;28;20070;-78
2022/11/27 06:31:58;;;;;;;75.57;30.85;;;;;;;2.06;100.00;98653.34;5080837;28;20090;-80
2022/11/27 06:34:24;;;;;;;75.43;32.35;;;;;;;2.20;100.00;98646.16;5073361;28;20055;-79
2022/11/27 06:36:50;;;;;;;76.22;33.60;;;;;;;2.39;100.00;98645.03;5065561;28;20020;-78
2022/11/27 06:39:15;;;;;;;91.13;36.80;;;;;;;2.49;100.00;98644.00;5055238;28;20048;-79
2022/11/27 06:41:42;;;;;;;88.85;40.40;;;;;;;2.46;100.00;98635.28;5078075;28;20058;-80
2022/11/27 06:44:09;;;;;;;129.82;50.92;;;;;;;2.54;100.00;98644.84;5067201;28;20093;-80
2022/11/27 06:46:35;;;;;;;126.28;50.28;;;;;;;2.39;100.00;98631.84;5083258;28;20414;-79
2022/11/27 06:49:01;;;;;;;137.57;52.42;;;;;;;2.48;100.00;98641.41;5075635;28;20032;-80
2022/11/27 06:51:28;;;;;;;111.15;47.45;;;;;;;2.58;100.00;98646.56;5063702;28;20040;-79
2022/11/27 06:53:54;;;;;;;91.13;40.50;;;;;;;2.77;100.00;98646.34;5071139;28;20156;-79
2022/11/27 06:56:25;;;;;;;110.22;43.25;;;;;;;2.99;100.00;98655.69;5092707;28;20024;-80
2022/11/27 06:58:52;;;;;;;103.60;42.70;;;;;;;3.10;100.00;98659.06;5092405;28;20088;-79
2022/11/27 07:01:18;;;;;;;93.43;39.88;;;;;;;3.36;100.00;98651.59;5082270;28;20031;-80
2022/11/27 07:03:43;;;;;;;83.53;35.80;;;;;;;3.49;100.00;98637.28;5077660;28;20099;-78
2022/11/27 07:06:11;;;;;;;85.32;38.05;;;;;;;3.89;100.00;98650.72;5058564;28;20441;-78
2022/11/27 07:08:37;;;;;;;77.22;34.78;;;;;;;4.03;100.00;98626.66;5067955;28;20025;-79
2022/11/27 07:11:18;;;;;;;76.28;34.25;;;;;;;4.16;100.00;98621.06;5080022;28;20493;-80
2022/11/27 07:13:45;;;;;;;79.03;35.15;;;;;;;4.22;100.00;98613.00;5074997;28;20039;-79
2022/11/27 07:16:11;;;;;;;81.00;38.92;;;;;;;4.16;100.00;98604.31;5074392;28;20028;-80
2022/11/27 07:18:42;;;;;;;83.85;38.50;;;;;;;4.39;100.00;98612.69;5066059;28;20081;-82
2022/11/27 07:21:10;;;;;;;93.35;40.60;;;;;;;4.50;100.00;98609.81;5063157;28;20028;-79
2022/11/27 07:23:36;;;;;;;98.50;44.22;;;;;;;4.48;100.00;98601.91;5082292;28;20091;-80
2022/11/27 07:26:06;;;;;;;88.07;43.50;;;;;;;4.51;100.00;98591.25;5074522;28;20031;-79
2022/11/27 07:28:32;;;;;;;93.45;41.45;;;;;;;4.68;100.00;98596.16;5057718;28;20021;-80
2022/11/27 07:30:58;;;;;;;91.20;40.92;;;;;;;4.89;100.00;98604.50;5079865;28;20032;-79
2022/11/27 07:33:24;;;;;;;97.57;42.05;;;;;;;5.13;100.00;98602.22;5069872;28;20119;-81
2022/11/27 07:35:57;;;;;;;89.07;41.65;;;;;;;5.37;100.00;98599.84;5067235;28;20026;-80
2022/11/27 07:38:22;;;;;;;94.07;45.70;;;;;;;5.73;100.00;98595.41;5056432;28;20027;-80
2022/11/27 07:40:48;;;;;;;101.28;46.50;;;;;;;5.69;99.52;98585.75;5079729;28;20613;-79
2022/11/27 07:43:13;;;;;;;101.88;47.05;;;;;;;6.04;97.36;98584.00;5072188;28;20112;-79
2022/11/27 07:45:39;;;;;;;110.75;46.90;;;;;;;6.89;92.64;98609.00;5061305;28;20412;-79
2022/11/27 07:48:05;;;;;;;102.40;47.13;;;;;;;7.44;87.59;98586.84;5087983;28;20028;-79
2022/11/27 07:50:30;;;;;;;102.20;44.22;;;;;;;7.91;84.26;98587.88;5062668;28;20036;-79
2022/11/27 07:52:56;;;;;;;100.38;45.08;;;;;;;8.12;81.17;98572.00;5061304;28;20031;-80
2022/11/27 07:55:21;;;;;;;104.25;44.42;;;;;;;8.53;80.15;98580.31;5091084;28;20028;-80
2022/11/27 07:57:47;;;;;;;86.65;39.22;;;;;;;9.19;76.65;98574.22;5091590;28;20036;-79
2022/11/27 08:00:13;;;;;;;93.10;42.45;;;;;;;9.47;74.15;98560.59;5077249;28;20042;-78
2022/11/27 08:02:38;;;;;;;91.57;41.80;;;;;;;9.85;70.48;98541.13;5073912;28;20116;-80
2022/11/27 08:05:04;;;;;;;83.85;41.00;;;;;;;9.86;70.11;98540.22;5084359;28;20111;-80
2022/11/27 08:07:30;;;;;;;77.68;38.15;;;;;;;9.48;70.65;98517.81;5079209;28;20035;-78
2022/11/27 08:09:57;;;;;;;87.53;40.22;;;;;;;9.17;72.29;98507.53;5071779;28;20085;-79
2022/11/27 08:12:23;;;;;;;77.95;38.13;;;;;;;9.24;72.61;98493.00;5057312;28;20020;-80
2022/11/27 08:14:49;;;;;;;80.65;39.28;;;;;;;8.76;73.11;98481.66;5082365;28;20023;-79
2022/11/27 08:17:15;;;;;;;85.47;44.15;;;;;;;8.54;74.99;98489.63;5070964;28;20032;-80
2022/11/27 08:19:40;;;;;;;78.85;41.05;;;;;;;8.52;75.70;98487.94;5085029;28;20028;-79
2022/11/27 08:22:14;;;;;;;81.18;38.05;;;;;;;8.21;77.92;98490.00;5076554;28;20019;-78
2022/11/27 08:24:41;;;;;;;71.38;37.35;;;;;;;8.01;78.68;98483.63;5059643;28;20066;-78
2022/11/27 08:27:08;;;;;;;67.05;32.33;;;;;;;7.71;80.18;98471.41;5058844;28;20028;-79
2022/11/27 08:29:33;;;;;;;72.53;35.10;;;;;;;7.58;80.62;98483.41;5064500;28;20561;-79
2022/11/27 08:31:59;;;;;;;73.80;33.65;;;;;;;7.43;81.95;98473.28;5070032;28;20029;-79
2022/11/27 08:34:25;;;;;;;75.07;35.28;;;;;;;7.48;82.17;98487.31;5087173;28;20031;-80
2022/11/27 08:36:51;;;;;;;83.20;38.75;;;;;;;7.47;82.10;98481.13;5065198;28;20028;-79
2022/11/27 08:39:17;;;;;;;86.93;41.35;;;;;;;7.36;83.54;98482.41;5071094;28;20039;-78
2022/11/27 08:41:43;;;;;;;85.80;41.03;;;;;;;7.15;84.85;98475.16;5083799;28;20016;-79
2022/11/27 08:44:08;;;;;;;95.03;43.97;;;;;;;6.67;87.84;98470.53;5056698;28;20102;-80
2022/11/27 08:46:34;;;;;;;90.72;42.17;;;;;;;6.67;88.59;98473.19;5081701;28;20061;-79
2022/11/27 08:48:59;;;;;;;105.15;51.22;;;;;;;6.58;90.34;98492.06;5090097;28;20024;-79
2022/11/27 08:51:25;;;;;;;102.10;48.13;;;;;;;6.61;91.46;98488.44;5089833;28;20028;-79
2022/11/27 08:53:51;;;;;;;102.65;51.78;;;;;;;6.33;93.20;98481.31;5090141;28;20111;-79
2022/11/27 08:56:20;;;;;;;115.55;53.67;;;;;;;6.37;94.41;98493.56;5089805;28;20034;-80
2022/11/27 08:58:46;;;;;;;101.80;50.97;;;;;;;6.10;96.92;98488.22;5084979;28;20099;-79
2022/11/27 09:01:27;;;;;;;119.90;54.60;;;;;;;6.06;98.78;98502.50;5087118;28;20065;-80
2022/11/27 09:03:53;;;;;;;125.82;57.30;;;;;;;6.02;99.52;98500.84;5090101;28;20019;-80
2022/11/27 09:06:20;;;;;;;136.15;61.22;;;;;;;6.06;100.00;98505.16;5088639;28;20036;-79
2022/11/27 09:08:46;;;;;;;134.63;63.22;;;;;;;6.18;100.00;98518.09;5066558;28;20023;-79
2022/11/27 09:11:13;;;;;;;137.00;63.78;;;;;;;6.24;100.00;98510.81;5072249;28;20055;-78
2022/11/27 09:13:40;;;;;;;145.73;62.80;;;;;;;5.92;100.00;98497.59;5049299;28;20426;-79
2022/11/27 09:16:09;;;;;;;144.50;61.17;;;;;;;5.76;100.00;98497.09;5073657;28;20024;-79
2022/11/27 09:18:35;;;;;;;128.65;60.45;;;;;;;5.73;100.00;98499.84;5061021;28;20032;-80
2022/11/27 09:21:03;;;;;;;120.05;58.08;;;;;;;6.11;100.00;98522.72;5079343;28;20115;-78
2022/11/27 09:23:29;;;;;;;104.53;51.88;;;;;;;6.08;100.00;98498.03;5071392;28;20035;-78
2022/11/27 09:26:03;;;;;;;104.88;52.40;;;;;;;6.25;100.00;98499.25;5075998;28;20099;-80
2022/11/27 09:28:29;;;;;;;98.30;47.75;;;;;;;6.15;99.21;98481.88;5079737;28;20032;-79
2022/11/27 09:30:55;;;;;;;101.32;47.97;;;;;;;6.58;97.79;98486.75;5075711;28;20031;-80
2022/11/27 09:33:22;;;;;;;87.47;41.97;;;;;;;6.59;96.11;98469.00;5077380;28;20033;-80
2022/11/27 09:35:48;;;;;;;78.25;37.90;;;;;;;6.76;94.24;98480.88;5074262;28;20050;-80
2022/11/27 09:38:13;;;;;;;87.00;40.35;;;;;;;6.76;93.17;98461.38;5089545;28;20036;-80
2022/11/27 09:41:02;;;;;;;81.07;39.03;;;;;;;6.86;92.81;98471.66;5079367;28;20504;-81
2022/11/27 09:43:30;;;;;;;82.05;40.42;;;;;;;7.07;90.97;98470.94;5070015;28;20442;-80
2022/11/27 09:46:02;;;;;;;110.25;52.60;;;;;;;7.51;89.56;98477.44;5061343;28;20032;-79
2022/11/27 09:48:34;;;;;;;133.05;56.53;;;;;;;7.41;89.49;98469.81;5053256;28;20439;-79
2022/11/27 09:51:04;;;;;;;112.15;53.08;;;;;;;7.63;87.68;98450.38;5071992;28;20043;-81
2022/11/27 09:53:46;;;;;;;110.22;54.78;;;;;;;7.94;88.33;98463.44;5063668;28;20036;-80
2022/11/27 09:56:15;;;;;;;105.15;51.85;;;;;;;7.76;86.36;98450.81;5077015;28;20115;-80
2022/11/27 09:58:43;;;;;;;106.35;51.33;;;;;;;8.04;84.90;98448.88;5058725;28;20047;-79
2022/11/27 10:01:13;;;;;;;76.75;38.75;;;;;;;7.90;83.51;98429.00;5058003;28;20032;-79
2022/11/27 10:03:43;;;;;;;49.38;24.48;;;;;;;7.73;82.71;98416.28;5058239;28;20066;-79
2022/11/27 10:06:34;;;;;;;59.03;30.67;;;;;;;7.58;83.43;98403.53;5059206;28;20032;-79
2022/11/27 10:09:17;;;;;;;77.03;38.72;;;;;;;7.71;84.21;98401.31;5065312;28;20043;-79
2022/11/27 10:12:20;;;;;;;118.97;51.95;;;;;;;8.06;85.51;98417.69;5077267;28;20044;-80
2022/11/27 10:14:48;;;;;;;;;;;;;;;8.14;83.51;98404.97;5084023;28;20024;-79
2022/11/27 10:17:19;;;;;;;62.83;31.85;;;;;;;8.04;83.23;98400.03;5080453;28;19916;-80
2022/11/27 10:19:50;;;;;;;55.67;28.63;;;;;;;8.00;82.97;98399.28;5075882;28;20024;-79
2022/11/27 10:22:22;;;;;;;49.47;23.02;;;;;;;8.01;82.16;98395.69;5055960;28;20029;-80
2022/11/27 10:25:06;;;;;;;61.55;28.23;;;;;;;8.00;81.73;98391.28;5073711;28;20027;-80
2022/11/27 10:28:04;;;;;;;51.85;27.10;;;;;;;8.24;81.36;98380.63;5078330;28;20028;-80
2022/11/27 10:30:32;;;;;;;53.03;27.33;;;;;;;8.46;80.61;98376.22;5053032;28;20035;-80
2022/11/27 10:32:59;;;;;;;36.38;16.60;;;;;;;8.54;78.01;98363.44;5085716;28;20016;-80
2022/11/27 10:35:30;;;;;;;30.55;15.52;;;;;;;8.60;77.76;98365.84;5058235;28;20031;-80
2022/11/27 10:38:00;;;;;;;29.17;16.30;;;;;;;8.84;76.57;98362.16;5083239;28;20444;-79
2022/11/27 10:40:49;;;;;;;85.43;33.60;;;;;;;8.93;75.21;98347.56;5071667;28;20034;-80
2022/11/27 10:43:19;;;;;;;33.08;17.67;;;;;;;8.91;76.33;98344.97;5084627;28;20495;-80
2022/11/27 10:45:49;;;;;;;27.73;14.82;;;;;;;9.02;76.78;98357.84;5072755;28;20406;-80
2022/11/27 10:48:15;;;;;;;31.95;14.93;;;;;;;8.80;76.70;98338.38;5084099;28;20020;-79
2022/11/27 10:50:41;;;;;;;24.75;13.43;;;;;;;8.93;76.31;98344.88;5075607;28;20443;-79
2022/11/27 10:53:10;;;;;;;33.30;17.48;;;;;;;8.85;75.43;98331.91;5076061;28;20119;-79
2022/11/27 10:56:07;;;;;;;37.65;16.77;;;;;;;9.07;75.20;98335.38;5063624;28;20043;-79
2022/11/27 10:59:05;;;;;;;33.88;17.45;;;;;;;9.08;75.28;98325.56;5085902;28;20024;-79
2022/11/27 11:01:48;;;;;;;111.93;55.13;;;;;;;9.44;73.08;98325.75;5038612;28;20488;-80
2022/11/27 11:04:19;;;;;;;39.67;22.00;;;;;;;9.78;71.50;98325.94;5057924;28;20408;-79
2022/11/27 11:06:47;;;;;;;27.23;13.80;;;;;;;9.67;70.63;98315.75;5084724;28;20111;-79
2022/11/27 11:09:20;;;;;;;26.20;13.63;;;;;;;9.68;70.59;98312.16;5074924;28;20061;-79
2022/11/27 11:11:46;;;;;;;18.63;9.65;;;;;;;9.11;72.49;98286.25;5083190;28;20447;-80
2022/11/27 11:14:25;;;;;;;15.07;7.85;;;;;;;9.38;71.90;98302.00;5078444;28;20044;-80
2022/11/27 11:16:52;;;;;;;15.32;7.18;;;;;;;9.31;72.55;98293.38;5066959;28;20105;-80
2022/11/27 11:19:28;;;;;;;15.75;7.68;;;;;;;9.32;72.24;98296.94;5055245;28;20028;-78
2022/11/27 11:21:54;;;;;;;18.35;9.77;;;;;;;9.20;73.75;98298.31;5075656;28;20120;-78
2022/11/27 11:24:27;;;;;;;16.52;8.18;;;;;;;9.20;73.26;98299.19;5079688;28;20056;-79
2022/11/27 11:26:55;;;;;;;19.00;8.95;;;;;;;9.02;73.67;98286.66;5054463;28;20510;-79
2022/11/27 11:29:36;;;;;;;14.63;7.88;;;;;;;9.21;75.34;98295.59;5060355;28;20039;-80
2022/11/27 11:32:08;;;;;;;16.85;8.80;;;;;;;9.42;73.80;98290.22;5087204;28;20031;-79